sensor_id;sensor_type;location;lat;lon;timestamp;pressure;altitude;pressure_sealevel;temperature;humidity
51849;BME280;38952;51.090;-1.832;2023-04-19T00:01:12;101250.06;;;6.34;75.86
51849;BME280;38952;51.090;-1.832;2023-04-19T00:03:38;101256.97;;;6.30;76.94
51849;BME280;38952;51.090;-1.832;2023-04-19T00:06:03;101241.59;;;6.17;76.29
51849;BME280;38952;51.090;-1.832;2023-04-19T00:08:29;101238.06;;;6.10;76.61
51849;BME280;38952;51.090;-1.832;2023-04-19T00:10:54;101247.28;;;6.09;77.05
51849;BME280;38952;51.090;-1.832;2023-04-19T00:13:20;101255.59;;;6.14;76.93
51849;BME280;38952;51.090;-1.832;2023-04-19T00:15:46;101240.34;;;6.13;76.74
51849;BME280;38952;51.090;-1.832;2023-04-19T00:18:11;101237.19;;;6.16;77.79
51849;BME280;38952;51.090;-1.832;2023-04-19T00:20:39;101230.91;;;6.22;77.11
51849;BME280;38952;51.090;-1.832;2023-04-19T00:23:05;101231.66;;;6.36;77.93
51849;BME280;38952;51.090;-1.832;2023-04-19T00:25:30;101207.25;;;6.29;77.30
51849;BME280;38952;51.090;-1.832;2023-04-19T00:28:05;101227.00;;;6.43;77.57
51849;BME280;38952;51.090;-1.832;2023-04-19T00:30:30;101235.53;;;6.54;77.71
51849;BME280;38952;51.090;-1.832;2023-04-19T00:32:56;101235.06;;;6.57;78.21
51849;BME280;38952;51.090;-1.832;2023-04-19T00:35:21;101224.72;;;6.72;77.38
51849;BME280;38952;51.090;-1.832;2023-04-19T00:37:46;101230.16;;;6.72;77.96
51849;BME280;38952;51.090;-1.832;2023-04-19T00:40:12;101213.19;;;6.52;77.45
51849;BME280;38952;51.090;-1.832;2023-04-19T00:42:41;101199.06;;;6.36;77.60
51849;BME280;38952;51.090;-1.832;2023-04-19T00:45:09;101195.53;;;6.29;78.68
51849;BME280;38952;51.090;-1.832;2023-04-19T00:47:46;101211.63;;;6.31;78.68
51849;BME280;38952;51.090;-1.832;2023-04-19T00:50:12;101215.34;;;6.36;79.64
51849;BME280;38952;51.090;-1.832;2023-04-19T00:52:38;101220.56;;;6.38;78.69
51849;BME280;38952;51.090;-1.832;2023-04-19T00:55:04;101213.72;;;6.35;79.67
51849;BME280;38952;51.090;-1.832;2023-04-19T00:57:30;101195.38;;;6.24;79.81
51849;BME280;38952;51.090;-1.832;2023-04-19T00:59:56;101195.09;;;6.32;79.62
51849;BME280;38952;51.090;-1.832;2023-04-19T01:02:21;101202.63;;;6.37;79.51
51849;BME280;38952;51.090;-1.832;2023-04-19T01:04:47;101203.22;;;6.39;80.38
51849;BME280;38952;51.090;-1.832;2023-04-19T01:07:12;101192.38;;;6.39;80.42
51849;BME280;38952;51.090;-1.832;2023-04-19T01:09:42;101184.88;;;6.34;80.64
51849;BME280;38952;51.090;-1.832;2023-04-19T01:12:13;101188.09;;;6.50;80.39
51849;BME280;38952;51.090;-1.832;2023-04-19T01:14:41;101189.72;;;6.57;81.13
51849;BME280;38952;51.090;-1.832;2023-04-19T01:17:07;101173.34;;;6.64;82.22
51849;BME280;38952;51.090;-1.832;2023-04-19T01:19:33;101173.69;;;6.74;80.95
51849;BME280;38952;51.090;-1.832;2023-04-19T01:22:02;101181.53;;;6.89;80.83
51849;BME280;38952;51.090;-1.832;2023-04-19T01:24:29;101172.53;;;6.89;80.99
51849;BME280;38952;51.090;-1.832;2023-04-19T01:26:54;101173.16;;;6.91;81.28
51849;BME280;38952;51.090;-1.832;2023-04-19T01:29:20;101170.19;;;6.92;80.78
51849;BME280;38952;51.090;-1.832;2023-04-19T01:31:47;101171.84;;;6.93;81.50
51849;BME280;38952;51.090;-1.832;2023-04-19T01:34:16;101170.13;;;6.99;81.19
51849;BME280;38952;51.090;-1.832;2023-04-19T01:36:41;101165.16;;;7.14;81.83
51849;BME280;38952;51.090;-1.832;2023-04-19T01:39:06;101163.66;;;7.19;81.27
51849;BME280;38952;51.090;-1.832;2023-04-19T01:41:32;101153.59;;;7.19;81.31
51849;BME280;38952;51.090;-1.832;2023-04-19T01:43:57;101173.03;;;7.41;81.84
51849;BME280;38952;51.090;-1.832;2023-04-19T01:46:24;101161.69;;;7.44;81.45
51849;BME280;38952;51.090;-1.832;2023-04-19T01:48:50;101171.69;;;7.50;81.81
51849;BME280;38952;51.090;-1.832;2023-04-19T01:51:15;101167.44;;;7.55;81.86
51849;BME280;38952;51.090;-1.832;2023-04-19T01:53:41;101164.72;;;7.55;81.84
51849;BME280;38952;51.090;-1.832;2023-04-19T01:56:07;101152.78;;;7.56;82.09
51849;BME280;38952;51.090;-1.832;2023-04-19T01:58:32;101174.38;;;7.69;82.31
51849;BME280;38952;51.090;-1.832;2023-04-19T02:00:57;101171.81;;;7.74;81.94
51849;BME280;38952;51.090;-1.832;2023-04-19T02:03:23;101164.25;;;7.76;82.28
51849;BME280;38952;51.090;-1.832;2023-04-19T02:05:48;101162.72;;;7.80;82.35
51849;BME280;38952;51.090;-1.832;2023-04-19T02:08:14;101145.66;;;7.73;82.16
51849;BME280;38952;51.090;-1.832;2023-04-19T02:10:39;101147.91;;;7.76;82.33
51849;BME280;38952;51.090;-1.832;2023-04-19T02:13:05;101152.88;;;7.79;82.30
51849;BME280;38952;51.090;-1.832;2023-04-19T02:15:30;101151.38;;;7.83;82.52
51849;BME280;38952;51.090;-1.832;2023-04-19T02:17:55;101129.16;;;7.68;82.55
51849;BME280;38952;51.090;-1.832;2023-04-19T02:20:28;101136.81;;;7.59;83.45
51849;BME280;38952;51.090;-1.832;2023-04-19T02:23:01;101129.66;;;7.46;83.57
51849;BME280;38952;51.090;-1.832;2023-04-19T02:25:26;101121.56;;;7.40;83.99
51849;BME280;38952;51.090;-1.832;2023-04-19T02:27:54;101117.03;;;7.33;84.24
51849;BME280;38952;51.090;-1.832;2023-04-19T02:30:27;101112.88;;;7.31;84.96
51849;BME280;38952;51.090;-1.832;2023-04-19T02:32:53;101106.97;;;7.34;84.98
51849;BME280;38952;51.090;-1.832;2023-04-19T02:35:19;101117.94;;;7.46;85.88
51849;BME280;38952;51.090;-1.832;2023-04-19T02:37:44;101117.31;;;7.62;84.99
51849;BME280;38952;51.090;-1.832;2023-04-19T02:40:10;101118.19;;;7.75;84.64
51849;BME280;38952;51.090;-1.832;2023-04-19T02:42:35;101119.66;;;7.89;84.44
51849;BME280;38952;51.090;-1.832;2023-04-19T02:45:01;101123.03;;;8.03;83.97
51849;BME280;38952;51.090;-1.832;2023-04-19T02:47:26;101130.28;;;8.09;84.61
51849;BME280;38952;51.090;-1.832;2023-04-19T02:49:52;101129.97;;;8.29;84.40
51849;BME280;38952;51.090;-1.832;2023-04-19T02:52:17;101132.31;;;8.44;84.04
51849;BME280;38952;51.090;-1.832;2023-04-19T02:54:43;101125.16;;;8.43;83.71
51849;BME280;38952;51.090;-1.832;2023-04-19T02:57:09;101116.06;;;8.49;83.38
51849;BME280;38952;51.090;-1.832;2023-04-19T02:59:34;101102.44;;;8.49;83.25
51849;BME280;38952;51.090;-1.832;2023-04-19T03:02:00;101109.41;;;8.57;82.98
51849;BME280;38952;51.090;-1.832;2023-04-19T03:04:25;101113.72;;;8.53;83.42
51849;BME280;38952;51.090;-1.832;2023-04-19T03:06:51;101108.78;;;8.43;83.07
51849;BME280;38952;51.090;-1.832;2023-04-19T03:09:16;101109.63;;;8.44;83.32
51849;BME280;38952;51.090;-1.832;2023-04-19T03:11:42;101115.53;;;8.41;83.01
51849;BME280;38952;51.090;-1.832;2023-04-19T03:14:07;101113.84;;;8.28;83.56
51849;BME280;38952;51.090;-1.832;2023-04-19T03:16:33;101114.69;;;8.16;83.58
51849;BME280;38952;51.090;-1.832;2023-04-19T03:18:58;101113.94;;;8.09;83.70
51849;BME280;38952;51.090;-1.832;2023-04-19T03:21:24;101110.72;;;8.00;84.43
51849;BME280;38952;51.090;-1.832;2023-04-19T03:23:52;101113.06;;;7.97;83.80
51849;BME280;38952;51.090;-1.832;2023-04-19T03:26:17;101115.50;;;7.86;83.68
51849;BME280;38952;51.090;-1.832;2023-04-19T03:28:42;101110.59;;;7.77;84.28
51849;BME280;38952;51.090;-1.832;2023-04-19T03:31:10;101107.25;;;7.63;84.10
51849;BME280;38952;51.090;-1.832;2023-04-19T03:33:38;101100.47;;;7.54;84.68
51849;BME280;38952;51.090;-1.832;2023-04-19T03:36:04;101104.25;;;7.53;84.71
51849;BME280;38952;51.090;-1.832;2023-04-19T03:38:29;101103.31;;;7.59;85.10
51849;BME280;38952;51.090;-1.832;2023-04-19T03:40:55;101099.84;;;7.70;84.98
51849;BME280;38952;51.090;-1.832;2023-04-19T03:43:22;101095.94;;;7.78;84.85
51849;BME280;38952;51.090;-1.832;2023-04-19T03:45:49;101102.03;;;7.92;84.91
51849;BME280;38952;51.090;-1.832;2023-04-19T03:48:14;101102.44;;;8.07;84.34
51849;BME280;38952;51.090;-1.832;2023-04-19T03:50:39;101096.66;;;8.15;83.56
51849;BME280;38952;51.090;-1.832;2023-04-19T03:53:05;101098.22;;;8.23;83.99
51849;BME280;38952;51.090;-1.832;2023-04-19T03:55:30;101089.09;;;8.29;83.76
51849;BME280;38952;51.090;-1.832;2023-04-19T03:57:56;101096.69;;;8.27;83.81
51849;BME280;38952;51.090;-1.832;2023-04-19T04:00:21;101076.38;;;8.11;83.31
51849;BME280;38952;51.090;-1.832;2023-04-19T04:02:47;101106.41;;;8.35;83.27
51849;BME280;38952;51.090;-1.832;2023-04-19T04:05:12;101090.78;;;8.42;82.88
51849;BME280;38952;51.090;-1.832;2023-04-19T04:07:38;101097.22;;;8.60;82.95
51849;BME280;38952;51.090;-1.832;2023-04-19T04:10:04;101092.47;;;8.67;82.60
51849;BME280;38952;51.090;-1.832;2023-04-19T04:12:29;101075.16;;;8.73;81.85
51849;BME280;38952;51.090;-1.832;2023-04-19T04:14:54;101091.75;;;8.83;81.29
51849;BME280;38952;51.090;-1.832;2023-04-19T04:17:22;101085.38;;;8.89;81.81
51849;BME280;38952;51.090;-1.832;2023-04-19T04:19:48;101088.69;;;8.91;81.04
51849;BME280;38952;51.090;-1.832;2023-04-19T04:22:15;101070.91;;;8.77;81.25
51849;BME280;38952;51.090;-1.832;2023-04-19T04:24:41;101082.28;;;8.74;80.73
51849;BME280;38952;51.090;-1.832;2023-04-19T04:27:07;101076.84;;;8.50;81.41
51849;BME280;38952;51.090;-1.832;2023-04-19T04:29:37;101082.50;;;8.37;82.02
51849;BME280;38952;51.090;-1.832;2023-04-19T04:32:06;101074.56;;;8.35;81.91
51849;BME280;38952;51.090;-1.832;2023-04-19T04:34:35;101082.50;;;8.37;82.24
51849;BME280;38952;51.090;-1.832;2023-04-19T04:37:02;101086.63;;;8.39;82.21
51849;BME280;38952;51.090;-1.832;2023-04-19T04:39:28;101070.38;;;8.33;81.66
51849;BME280;38952;51.090;-1.832;2023-04-19T04:41:53;101083.69;;;8.41;82.29
51849;BME280;38952;51.090;-1.832;2023-04-19T04:44:21;101089.84;;;8.48;81.89
51849;BME280;38952;51.090;-1.832;2023-04-19T04:46:47;101086.06;;;8.49;81.31
51849;BME280;38952;51.090;-1.832;2023-04-19T04:49:12;101085.97;;;8.44;81.68
51849;BME280;38952;51.090;-1.832;2023-04-19T04:51:38;101090.06;;;8.35;81.71
51849;BME280;38952;51.090;-1.832;2023-04-19T04:54:03;101098.59;;;8.27;81.88
51849;BME280;38952;51.090;-1.832;2023-04-19T04:56:29;101108.38;;;8.16;82.13
51849;BME280;38952;51.090;-1.832;2023-04-19T04:58:55;101108.34;;;8.04;82.33
51849;BME280;38952;51.090;-1.832;2023-04-19T05:01:21;101106.06;;;7.89;83.07
51849;BME280;38952;51.090;-1.832;2023-04-19T05:03:48;101096.19;;;7.76;82.80
51849;BME280;38952;51.090;-1.832;2023-04-19T05:06:14;101101.38;;;7.78;83.06
51849;BME280;38952;51.090;-1.832;2023-04-19T05:08:41;101092.53;;;7.82;83.16
51849;BME280;38952;51.090;-1.832;2023-04-19T05:11:07;101097.06;;;7.89;83.67
51849;BME280;38952;51.090;-1.832;2023-04-19T05:13:33;101092.06;;;7.85;82.84
51849;BME280;38952;51.090;-1.832;2023-04-19T05:15:58;101104.41;;;8.00;83.29
51849;BME280;38952;51.090;-1.832;2023-04-19T05:18:24;101093.53;;;8.00;83.18
51849;BME280;38952;51.090;-1.832;2023-04-19T05:20:49;101103.50;;;8.06;83.02
51849;BME280;38952;51.090;-1.832;2023-04-19T05:23:15;101101.63;;;8.18;83.13
51849;BME280;38952;51.090;-1.832;2023-04-19T05:25:41;101103.81;;;8.28;82.94
51849;BME280;38952;51.090;-1.832;2023-04-19T05:28:06;101101.81;;;8.35;82.90
51849;BME280;38952;51.090;-1.832;2023-04-19T05:30:31;101093.97;;;8.39;82.38
51849;BME280;38952;51.090;-1.832;2023-04-19T05:32:57;101102.31;;;8.44;82.43
51849;BME280;38952;51.090;-1.832;2023-04-19T05:35:23;101101.59;;;8.49;82.10
51849;BME280;38952;51.090;-1.832;2023-04-19T05:37:48;101106.34;;;8.53;82.58
51849;BME280;38952;51.090;-1.832;2023-04-19T05:40:17;101093.44;;;8.61;82.70
51849;BME280;38952;51.090;-1.832;2023-04-19T05:42:53;101094.16;;;8.68;82.24
51849;BME280;38952;51.090;-1.832;2023-04-19T05:45:20;101099.84;;;8.78;81.92
51849;BME280;38952;51.090;-1.832;2023-04-19T05:47:46;101097.47;;;8.94;81.68
51849;BME280;38952;51.090;-1.832;2023-04-19T05:50:11;101098.16;;;9.01;81.18
51849;BME280;38952;51.090;-1.832;2023-04-19T05:52:39;101098.03;;;9.07;81.21
51849;BME280;38952;51.090;-1.832;2023-04-19T05:55:04;101096.47;;;9.23;80.78
51849;BME280;38952;51.090;-1.832;2023-04-19T05:57:30;101097.66;;;9.28;80.63
51849;BME280;38952;51.090;-1.832;2023-04-19T05:59:55;101098.69;;;9.38;80.74
51849;BME280;38952;51.090;-1.832;2023-04-19T06:02:21;101108.81;;;9.55;80.31
51849;BME280;38952;51.090;-1.832;2023-04-19T06:04:49;101089.28;;;9.46;79.38
51849;BME280;38952;51.090;-1.832;2023-04-19T06:07:24;101091.75;;;9.59;79.74
51849;BME280;38952;51.090;-1.832;2023-04-19T06:10:18;101117.59;;;9.69;79.52
51849;BME280;38952;51.090;-1.832;2023-04-19T06:12:43;101117.00;;;9.67;79.20
51849;BME280;38952;51.090;-1.832;2023-04-19T06:15:09;101111.06;;;9.70;79.38
51849;BME280;38952;51.090;-1.832;2023-04-19T06:17:36;101097.78;;;9.61;79.45
51849;BME280;38952;51.090;-1.832;2023-04-19T06:20:01;101098.13;;;9.65;79.16
51849;BME280;38952;51.090;-1.832;2023-04-19T06:22:43;101085.75;;;9.74;79.14
51849;BME280;38952;51.090;-1.832;2023-04-19T06:25:09;101097.72;;;10.02;78.35
51849;BME280;38952;51.090;-1.832;2023-04-19T06:27:37;101074.81;;;9.91;78.51
51849;BME280;38952;51.090;-1.832;2023-04-19T06:30:12;101080.28;;;9.91;78.00
51849;BME280;38952;51.090;-1.832;2023-04-19T06:32:37;101091.75;;;10.05;77.10
51849;BME280;38952;51.090;-1.832;2023-04-19T06:35:03;101109.31;;;10.26;77.04
51849;BME280;38952;51.090;-1.832;2023-04-19T06:37:28;101117.38;;;10.33;76.93
51849;BME280;38952;51.090;-1.832;2023-04-19T06:39:57;101107.19;;;10.28;76.65
51849;BME280;38952;51.090;-1.832;2023-04-19T06:42:22;101083.81;;;10.04;76.44
51849;BME280;38952;51.090;-1.832;2023-04-19T06:44:52;101087.03;;;9.72;77.32
51849;BME280;38952;51.090;-1.832;2023-04-19T06:47:24;101121.97;;;9.70;78.37
51849;BME280;38952;51.090;-1.832;2023-04-19T06:49:50;101120.59;;;9.55;78.99
51849;BME280;38952;51.090;-1.832;2023-04-19T06:52:15;101119.41;;;9.51;79.55
51849;BME280;38952;51.090;-1.832;2023-04-19T06:54:41;101118.22;;;9.47;79.75
51849;BME280;38952;51.090;-1.832;2023-04-19T06:57:06;101108.91;;;9.31;80.21
51849;BME280;38952;51.090;-1.832;2023-04-19T06:59:36;101106.53;;;9.35;80.27
51849;BME280;38952;51.090;-1.832;2023-04-19T07:02:03;101095.50;;;9.30;80.42
51849;BME280;38952;51.090;-1.832;2023-04-19T07:04:29;101094.31;;;9.25;80.50
51849;BME280;38952;51.090;-1.832;2023-04-19T07:06:55;101105.34;;;9.31;80.68
51849;BME280;38952;51.090;-1.832;2023-04-19T07:09:23;101100.47;;;9.33;80.53
51849;BME280;38952;51.090;-1.832;2023-04-19T07:11:56;101108.06;;;9.31;81.12
51849;BME280;38952;51.090;-1.832;2023-04-19T07:14:21;101119.56;;;9.33;80.73
51849;BME280;38952;51.090;-1.832;2023-04-19T07:16:48;101123.00;;;9.40;80.83
51849;BME280;38952;51.090;-1.832;2023-04-19T07:19:13;101126.34;;;9.42;81.26
51849;BME280;38952;51.090;-1.832;2023-04-19T07:21:39;101111.25;;;9.39;80.96
51849;BME280;38952;51.090;-1.832;2023-04-19T07:24:05;101101.53;;;9.43;80.88
51849;BME280;38952;51.090;-1.832;2023-04-19T07:26:31;101133.28;;;9.61;80.75
51849;BME280;38952;51.090;-1.832;2023-04-19T07:28:57;101129.25;;;9.64;80.20
51849;BME280;38952;51.090;-1.832;2023-04-19T07:31:23;101121.97;;;9.70;80.38
51849;BME280;38952;51.090;-1.832;2023-04-19T07:33:49;101108.41;;;9.75;79.81
51849;BME280;38952;51.090;-1.832;2023-04-19T07:36:17;101111.63;;;10.01;79.33
51849;BME280;38952;51.090;-1.832;2023-04-19T07:38:43;101126.91;;;10.30;78.98
51849;BME280;38952;51.090;-1.832;2023-04-19T07:41:09;101136.81;;;10.65;78.59
51849;BME280;38952;51.090;-1.832;2023-04-19T07:46:59;101118.47;;;10.83;76.84
51849;BME280;38952;51.090;-1.832;2023-04-19T07:49:34;101130.72;;;10.97;75.59
51849;BME280;38952;51.090;-1.832;2023-04-19T07:55:28;101137.00;;;11.15;75.33
51849;BME280;38952;51.090;-1.832;2023-04-19T08:01:08;101129.25;;;11.51;73.92
51849;BME280;38952;51.090;-1.832;2023-04-19T08:03:44;101131.47;;;11.76;73.40
51849;BME280;38952;51.090;-1.832;2023-04-19T08:06:18;101107.31;;;11.95;72.47
51849;BME280;38952;51.090;-1.832;2023-04-19T08:08:53;101103.97;;;12.20;70.84
51849;BME280;38952;51.090;-1.832;2023-04-19T08:11:38;101105.28;;;12.45;70.02
51849;BME280;38952;51.090;-1.832;2023-04-19T08:14:06;101122.22;;;12.69;69.06
51849;BME280;38952;51.090;-1.832;2023-04-19T08:16:42;101128.06;;;12.83;68.51
51849;BME280;38952;51.090;-1.832;2023-04-19T08:19:08;101131.19;;;13.02;67.26
51849;BME280;38952;51.090;-1.832;2023-04-19T08:21:40;101121.41;;;13.17;67.29
51849;BME280;38952;51.090;-1.832;2023-04-19T08:24:13;101116.31;;;13.36;66.52
51849;BME280;38952;51.090;-1.832;2023-04-19T08:27:02;101131.28;;;13.71;65.26
51849;BME280;38952;51.090;-1.832;2023-04-19T08:29:27;101118.13;;;13.83;65.18
51849;BME280;38952;51.090;-1.832;2023-04-19T08:31:52;101140.75;;;14.11;64.08
51849;BME280;38952;51.090;-1.832;2023-04-19T08:34:18;101120.41;;;14.22;63.95
51849;BME280;38952;51.090;-1.832;2023-04-19T08:36:46;101124.00;;;14.43;63.42
51849;BME280;38952;51.090;-1.832;2023-04-19T08:39:14;101113.00;;;14.64;62.24
51849;BME280;38952;51.090;-1.832;2023-04-19T08:41:56;101112.41;;;14.93;61.34
51849;BME280;38952;51.090;-1.832;2023-04-19T08:44:27;101123.88;;;15.31;60.21
51849;BME280;38952;51.090;-1.832;2023-04-19T08:46:56;101099.34;;;15.95;58.47
51849;BME280;38952;51.090;-1.832;2023-04-19T08:49:22;101132.66;;;17.31;55.34
51849;BME280;38952;51.090;-1.832;2023-04-19T08:51:56;101120.25;;;18.81;51.43
51849;BME280;38952;51.090;-1.832;2023-04-19T08:54:25;101129.09;;;19.94;47.71
51849;BME280;38952;51.090;-1.832;2023-04-19T08:56:57;101143.72;;;20.45;46.42
51849;BME280;38952;51.090;-1.832;2023-04-19T08:59:33;101126.50;;;22.82;41.55
51849;BME280;38952;51.090;-1.832;2023-04-19T09:02:01;101141.06;;;23.65;38.61
51849;BME280;38952;51.090;-1.832;2023-04-19T09:04:34;101139.88;;;23.75;37.09
51849;BME280;38952;51.090;-1.832;2023-04-19T09:07:02;101134.72;;;24.49;36.68
51849;BME280;38952;51.090;-1.832;2023-04-19T09:09:30;101143.72;;;24.88;35.70
51849;BME280;38952;51.090;-1.832;2023-04-19T09:11:57;101146.09;;;25.73;33.91
51849;BME280;38952;51.090;-1.832;2023-04-19T09:14:27;101153.56;;;26.62;33.26
51849;BME280;38952;51.090;-1.832;2023-04-19T09:17:14;101164.88;;;26.38;33.69
51849;BME280;38952;51.090;-1.832;2023-04-19T09:19:58;101139.06;;;25.91;33.19
51849;BME280;38952;51.090;-1.832;2023-04-19T09:22:24;101113.63;;;24.18;34.71
51849;BME280;38952;51.090;-1.832;2023-04-19T09:24:54;101142.66;;;23.07;37.16
51849;BME280;38952;51.090;-1.832;2023-04-19T09:27:31;101120.13;;;22.73;37.91
51849;BME280;38952;51.090;-1.832;2023-04-19T09:30:02;101142.44;;;22.64;37.34
51849;BME280;38952;51.090;-1.832;2023-04-19T09:32:44;101120.09;;;21.51;39.28
51849;BME280;38952;51.090;-1.832;2023-04-19T09:35:10;101119.31;;;21.76;39.53
51849;BME280;38952;51.090;-1.832;2023-04-19T09:37:37;101126.72;;;22.51;38.15
51849;BME280;38952;51.090;-1.832;2023-04-19T09:40:24;101146.34;;;23.37;37.11
51849;BME280;38952;51.090;-1.832;2023-04-19T09:42:51;101125.22;;;24.08;36.33
51849;BME280;38952;51.090;-1.832;2023-04-19T09:45:16;101130.81;;;26.23;32.99
51849;BME280;38952;51.090;-1.832;2023-04-19T09:47:42;101126.22;;;27.36;30.61
51849;BME280;38952;51.090;-1.832;2023-04-19T09:50:08;101135.94;;;29.91;27.67
51849;BME280;38952;51.090;-1.832;2023-04-19T09:52:34;101145.06;;;32.64;25.93
51849;BME280;38952;51.090;-1.832;2023-04-19T09:55:02;101141.41;;;35.34;21.98
51849;BME280;38952;51.090;-1.832;2023-04-19T09:57:32;101132.13;;;33.64;21.36
51849;BME280;38952;51.090;-1.832;2023-04-19T09:59:58;101131.19;;;30.29;24.88
51849;BME280;38952;51.090;-1.832;2023-04-19T10:02:26;101104.38;;;27.45;27.16
51849;BME280;38952;51.090;-1.832;2023-04-19T10:04:56;101095.94;;;27.45;29.57
51849;BME280;38952;51.090;-1.832;2023-04-19T10:07:22;101120.53;;;31.35;25.59
51849;BME280;38952;51.090;-1.832;2023-04-19T10:09:49;101108.97;;;34.01;21.31
51849;BME280;38952;51.090;-1.832;2023-04-19T10:12:15;101107.91;;;33.12;21.65
51849;BME280;38952;51.090;-1.832;2023-04-19T10:14:43;101115.81;;;32.24;22.29
51849;BME280;38952;51.090;-1.832;2023-04-19T10:17:10;101087.34;;;30.76;24.51
51849;BME280;38952;51.090;-1.832;2023-04-19T10:19:39;101086.00;;;32.59;22.78
51849;BME280;38952;51.090;-1.832;2023-04-19T10:22:05;101103.09;;;34.37;21.80
51849;BME280;38952;51.090;-1.832;2023-04-19T10:24:32;101088.47;;;35.82;19.65
51849;BME280;38952;51.090;-1.832;2023-04-19T10:27:11;101083.63;;;36.95;18.47
51849;BME280;38952;51.090;-1.832;2023-04-19T10:29:59;101092.13;;;37.66;17.49
51849;BME280;38952;51.090;-1.832;2023-04-19T10:32:29;101090.09;;;38.60;16.79
51849;BME280;38952;51.090;-1.832;2023-04-19T10:35:01;101082.22;;;38.31;16.54
51849;BME280;38952;51.090;-1.832;2023-04-19T10:37:30;101087.91;;;38.68;16.38
51849;BME280;38952;51.090;-1.832;2023-04-19T10:39:56;101082.31;;;39.26;15.75
51849;BME280;38952;51.090;-1.832;2023-04-19T10:42:21;101100.72;;;39.71;15.05
51849;BME280;38952;51.090;-1.832;2023-04-19T10:47:50;101083.22;;;35.42;18.41
51849;BME280;38952;51.090;-1.832;2023-04-19T10:50:17;101055.41;;;35.95;17.85
51849;BME280;38952;51.090;-1.832;2023-04-19T10:52:42;101083.56;;;36.48;17.91
51849;BME280;38952;51.090;-1.832;2023-04-19T10:55:08;101080.16;;;37.08;17.89
51849;BME280;38952;51.090;-1.832;2023-04-19T10:58:02;101074.16;;;35.13;18.22
51849;BME280;38952;51.090;-1.832;2023-04-19T11:00:37;101054.47;;;33.21;20.66
51849;BME280;38952;51.090;-1.832;2023-04-19T11:06:17;101080.81;;;37.83;17.21
51849;BME280;38952;51.090;-1.832;2023-04-19T11:08:44;101068.59;;;39.05;16.17
51849;BME280;38952;51.090;-1.832;2023-04-19T11:11:09;101063.84;;;40.41;14.68
51849;BME280;38952;51.090;-1.832;2023-04-19T11:13:36;101081.88;;;38.46;15.76
51849;BME280;38952;51.090;-1.832;2023-04-19T11:16:10;101051.00;;;33.99;18.19
51849;BME280;38952;51.090;-1.832;2023-04-19T11:18:46;101040.94;;;31.19;20.83
51849;BME280;38952;51.090;-1.832;2023-04-19T11:21:23;101039.78;;;29.69;23.02
51849;BME280;38952;51.090;-1.832;2023-04-19T11:24:08;101031.25;;;28.82;24.00
51849;BME280;38952;51.090;-1.832;2023-04-19T11:26:34;101039.38;;;28.21;24.65
51849;BME280;38952;51.090;-1.832;2023-04-19T11:29:02;101039.44;;;27.14;25.98
51849;BME280;38952;51.090;-1.832;2023-04-19T11:31:38;101009.56;;;26.26;28.44
51849;BME280;38952;51.090;-1.832;2023-04-19T11:34:13;101050.25;;;29.99;25.29
51849;BME280;38952;51.090;-1.832;2023-04-19T11:37:02;101050.75;;;32.24;21.76
51849;BME280;38952;51.090;-1.832;2023-04-19T11:39:27;101027.31;;;33.35;20.30
51849;BME280;38952;51.090;-1.832;2023-04-19T11:41:53;101029.38;;;33.16;20.11
51849;BME280;38952;51.090;-1.832;2023-04-19T11:44:29;100999.25;;;31.67;21.21
51849;BME280;38952;51.090;-1.832;2023-04-19T11:47:08;101004.72;;;29.36;23.18
51849;BME280;38952;51.090;-1.832;2023-04-19T11:52:58;101013.97;;;26.88;25.50
51849;BME280;38952;51.090;-1.832;2023-04-19T11:55:24;101015.22;;;25.45;27.66
51849;BME280;38952;51.090;-1.832;2023-04-19T11:57:49;101012.09;;;24.14;29.15
51849;BME280;38952;51.090;-1.832;2023-04-19T12:00:15;101020.03;;;25.85;29.97
51849;BME280;38952;51.090;-1.832;2023-04-19T12:02:42;101034.59;;;29.41;24.20
51849;BME280;38952;51.090;-1.832;2023-04-19T12:05:13;101015.56;;;27.95;24.97
51849;BME280;38952;51.090;-1.832;2023-04-19T12:10:29;101013.16;;;25.17;28.13
51849;BME280;38952;51.090;-1.832;2023-04-19T12:12:55;101019.06;;;23.87;30.46
51849;BME280;38952;51.090;-1.832;2023-04-19T12:15:21;101013.81;;;22.83;31.68
51849;BME280;38952;51.090;-1.832;2023-04-19T12:18:01;101014.53;;;21.81;33.08
51849;BME280;38952;51.090;-1.832;2023-04-19T12:20:31;101026.28;;;21.42;34.72
51849;BME280;38952;51.090;-1.832;2023-04-19T12:23:00;101022.66;;;21.33;35.11
51849;BME280;38952;51.090;-1.832;2023-04-19T12:25:32;101015.28;;;21.37;34.84
51849;BME280;38952;51.090;-1.832;2023-04-19T12:28:01;101003.22;;;21.68;34.73
51849;BME280;38952;51.090;-1.832;2023-04-19T12:30:37;101020.56;;;23.42;32.46
51849;BME280;38952;51.090;-1.832;2023-04-19T12:33:03;100988.16;;;23.29;32.05
51849;BME280;38952;51.090;-1.832;2023-04-19T12:35:34;101029.69;;;23.73;31.88
51849;BME280;38952;51.090;-1.832;2023-04-19T12:38:18;101008.88;;;23.70;31.07
51849;BME280;38952;51.090;-1.832;2023-04-19T12:40:53;101001.78;;;23.51;32.19
51849;BME280;38952;51.090;-1.832;2023-04-19T12:43:46;101031.38;;;30.03;25.35
51849;BME280;38952;51.090;-1.832;2023-04-19T12:46:22;101000.19;;;30.68;22.52
51849;BME280;38952;51.090;-1.832;2023-04-19T12:48:47;101003.75;;;28.98;23.26
51849;BME280;38952;51.090;-1.832;2023-04-19T12:51:13;100993.03;;;26.53;25.96
51849;BME280;38952;51.090;-1.832;2023-04-19T12:53:40;101014.34;;;26.86;26.80
51849;BME280;38952;51.090;-1.832;2023-04-19T12:56:06;101020.47;;;27.08;27.08
51849;BME280;38952;51.090;-1.832;2023-04-19T12:58:34;100997.78;;;28.30;25.24
51849;BME280;38952;51.090;-1.832;2023-04-19T13:00:59;101006.34;;;28.84;25.56
51849;BME280;38952;51.090;-1.832;2023-04-19T13:03:25;101021.13;;;30.63;23.67
51849;BME280;38952;51.090;-1.832;2023-04-19T13:05:50;101024.31;;;34.56;20.17
51849;BME280;38952;51.090;-1.832;2023-04-19T13:08:16;101026.97;;;36.74;17.88
51849;BME280;38952;51.090;-1.832;2023-04-19T13:10:45;101015.28;;;38.65;16.34
51849;BME280;38952;51.090;-1.832;2023-04-19T13:13:10;101013.94;;;38.20;15.61